Portada
METAR-TAF:

METAR-TAF

Aeroports :

Aeroport Internacional de Maputo

Maputo, Moçambic

latitud: 25-55S, longitud: 032-34E, altitud: 39 m

Observació

L'informe es va fer fa 57 minuts, a les 17:00 UTC
Vent 9 kt del Sud/Sud-Oest
Temperatura 24°C
Humitat 69%
Pressió 1019 hPa
Visibilitat 10 km o més
Núvols disperses a una alçada de 2000 ft
Cel ennuvolat a una alçada de 8000 ft

METAR: FQMA 031700Z 21009KT 9999 SCT020 BKN080 24/18 Q1019 NOSIG

Hora: 19:57 (17:57 UTC)

Pronòstic

L'informe es va fer fa 1 hora i 57 minuts, a les 16:00 UTC
Pronòstic vàlid del 03 a les 18 UTC al 04 a les 24 UTC
Vent 12 kt del Sud-Oest
Visibilitat 10 km o més
Cel ennuvolat a una alçada de 2000 ft
Evolucionant progressivament
l' 04 a les 06 UTC al 04 a les 08 UTC
Vent 10 kt del Nord/Nord-Est
Evolucionant progressivament
l' 04 a les 12 UTC al 04 a les 14 UTC
Vent 10 kt del Est

TAF: FQMA 031600Z 0318/0424 23012KT 9999 BKN020 TX28/0413Z TN20/0403Z BECMG 0406/0408 02010KT BECMG 0412/0414 10010KT

Observacions i pronòstics meteorològics de més de 4000 aeroports (METAR i TAF).

Les estacions disponibles són els punts grocs i vermells al mapa.

Posi el ratolí al punt desitjat per veure el nom de l'estació.

Feu clic per veure les observacions i els pronòstics meteorològics.

Per canviar el mapa: feu clic els botons verds amb una creu de color negre per apropar; al botó verd amb un guió per allunyar la imatge; o en les fletxes verdes per a mapes adjacents.


METAR-TAF: